createdAt,value
2019-01-19T00:03:44.987Z,6.40
2019-01-19T00:08:00.968Z,5.97
2019-01-19T00:12:20.090Z,9.63
2019-01-19T00:16:43.080Z,7.63
2019-01-19T00:21:07.621Z,7.60
2019-01-19T00:25:55.240Z,6.37
2019-01-19T00:30:08.036Z,7.93
2019-01-19T00:34:42.868Z,8.23
2019-01-19T00:39:07.099Z,6.17
2019-01-19T00:43:13.905Z,8.63
2019-01-19T00:47:43.606Z,8.27
2019-01-19T00:52:12.974Z,7.80
2019-01-19T00:56:50.180Z,7.70
2019-01-19T01:01:00.464Z,7.57
2019-01-19T01:05:11.354Z,7.75
2019-01-19T01:09:42.205Z,7.73
2019-01-19T01:14:09.997Z,9.83
2019-01-19T01:18:48.194Z,6.77
2019-01-19T01:23:14.773Z,7.70
2019-01-19T01:27:25.116Z,6.87
2019-01-19T01:31:38.158Z,8.17
2019-01-19T01:36:12.241Z,6.33
2019-01-19T01:40:37.349Z,8.80
2019-01-19T01:45:02.264Z,9.07
2019-01-19T01:49:12.544Z,7.27
2019-01-19T01:53:37.643Z,7.80
2019-01-19T01:57:48.026Z,7.70
2019-01-19T02:02:13.244Z,7.97
2019-01-19T02:06:37.912Z,8.07
2019-01-19T02:11:25.430Z,6.80
2019-01-19T02:15:47.805Z,8.73
2019-01-19T02:20:21.665Z,8.40
2019-01-19T02:24:52.182Z,8.50
2019-01-19T02:29:36.695Z,9.60
2019-01-19T02:34:01.663Z,8.93
2019-01-19T02:38:32.836Z,8.73
2019-01-19T02:43:02.351Z,7.50
2019-01-19T02:47:27.000Z,8.63
2019-01-19T02:51:48.816Z,11.33
2019-01-19T02:56:07.975Z,7.70
2019-01-19T03:00:46.921Z,6.47
2019-01-19T03:05:02.907Z,7.67
2019-01-19T03:09:35.357Z,7.33
2019-01-19T03:13:54.146Z,8.50
2019-01-19T03:18:28.451Z,6.97
2019-01-19T03:22:41.557Z,6.73
2019-01-19T03:27:14.136Z,6.20
2019-01-19T03:31:40.723Z,6.17
2019-01-19T03:36:04.501Z,8.77
2019-01-19T03:40:38.119Z,9.23
2019-01-19T03:45:23.943Z,10.47
2019-01-19T03:49:39.628Z,9.50
2019-01-19T03:54:13.346Z,6.23
2019-01-19T03:58:28.561Z,6.60
2019-01-19T04:03:02.641Z,8.90
2019-01-19T04:07:24.539Z,8.03
2019-01-19T04:12:11.969Z,8.73
2019-01-19T04:16:42.926Z,9.43
2019-01-19T04:21:19.281Z,8.13
2019-01-19T04:25:29.911Z,8.00
2019-01-19T04:29:35.578Z,7.40
2019-01-19T04:33:41.341Z,7.07
2019-01-19T04:37:47.013Z,8.67
2019-01-19T04:41:52.699Z,6.67
2019-01-19T04:45:58.415Z,7.07
2019-01-19T04:50:04.855Z,8.00
2019-01-19T04:54:10.611Z,9.30
2019-01-19T04:58:16.296Z,8.23
2019-01-19T05:02:22.012Z,7.57
2019-01-19T05:06:30.576Z,6.37
2019-01-19T05:10:35.648Z,6.87
2019-01-19T05:14:41.395Z,7.73
2019-01-19T05:18:47.091Z,8.97
2019-01-19T05:22:52.790Z,8.20
2019-01-19T05:26:58.457Z,7.30
2019-01-19T05:31:04.378Z,8.87
2019-01-19T05:35:10.219Z,8.83
2019-01-19T05:39:15.907Z,8.13
2019-01-19T05:43:21.613Z,7.43
2019-01-19T05:47:27.271Z,8.83
2019-01-19T05:51:32.951Z,8.43
2019-01-19T05:55:38.750Z,8.98
2019-01-19T05:59:44.428Z,7.90
2019-01-19T06:03:50.091Z,7.27
2019-01-19T06:07:55.812Z,6.55
2019-01-19T06:12:03.218Z,8.83
2019-01-19T06:16:08.906Z,8.97
2019-01-19T06:20:17.202Z,6.95
2019-01-19T06:24:22.878Z,8.17
2019-01-19T06:28:28.562Z,7.97
2019-01-19T06:32:34.255Z,8.47
2019-01-19T06:36:39.987Z,7.70
2019-01-19T06:40:45.702Z,6.72
2019-01-19T06:44:51.370Z,8.50
2019-01-19T06:48:57.056Z,7.80
2019-01-19T06:53:02.744Z,7.50
2019-01-19T06:57:08.507Z,7.63
2019-01-19T07:01:14.172Z,8.07
2019-01-19T07:05:19.999Z,6.93
2019-01-19T07:09:25.687Z,6.77
2019-01-19T07:13:31.365Z,6.13
2019-01-19T07:17:37.031Z,8.63
2019-01-19T07:21:42.794Z,10.00
2019-01-19T07:25:48.531Z,6.63
2019-01-19T07:29:54.211Z,7.43
2019-01-19T07:33:59.902Z,8.27
2019-01-19T07:38:05.569Z,6.20
2019-01-19T07:42:11.255Z,7.27
2019-01-19T07:46:17.378Z,8.40
2019-01-19T07:50:23.065Z,9.73
2019-01-19T07:54:28.737Z,8.20
2019-01-19T07:58:34.400Z,7.67
2019-01-19T08:02:40.235Z,8.00
2019-01-19T08:06:45.973Z,10.60
2019-01-19T08:10:51.740Z,13.33
2019-01-19T08:14:57.408Z,7.20
2019-01-19T08:19:03.147Z,14.70
2019-01-19T08:23:08.846Z,23.70
2019-01-19T08:27:14.548Z,12.03
2019-01-19T08:31:20.239Z,10.73
2019-01-19T08:35:26.012Z,9.13
2019-01-19T08:39:31.766Z,11.37
2019-01-19T08:43:39.155Z,12.33
2019-01-19T08:47:44.853Z,12.43
2019-01-19T08:51:50.556Z,12.53
2019-01-19T08:55:56.293Z,9.17
2019-01-19T09:00:01.949Z,11.07
2019-01-19T09:04:07.700Z,8.93
2019-01-19T09:08:13.390Z,8.97
2019-01-19T09:12:19.211Z,9.90
2019-01-19T09:16:24.948Z,16.53
2019-01-19T09:20:30.851Z,10.43
2019-01-19T09:24:36.537Z,11.33
2019-01-19T09:28:42.239Z,9.43
2019-01-19T09:32:48.197Z,10.43
2019-01-19T09:36:53.930Z,9.13
2019-01-19T09:40:59.736Z,16.60
2019-01-19T09:45:10.770Z,10.57
2019-01-19T09:49:16.655Z,11.07
2019-01-19T09:53:22.354Z,10.43
2019-01-19T09:57:28.088Z,10.60
2019-01-19T10:10:21.057Z,9.93
2019-01-19T10:14:26.777Z,11.30
2019-01-19T10:18:32.702Z,12.00
2019-01-19T10:22:39.357Z,8.67
2019-01-19T10:26:45.104Z,11.13
2019-01-19T10:30:51.577Z,9.25
2019-01-19T10:35:00.018Z,8.47
2019-01-19T10:39:08.949Z,10.63
2019-01-19T10:43:14.628Z,8.93
2019-01-19T10:47:20.388Z,10.07
2019-01-19T10:51:26.210Z,10.53
2019-01-19T10:55:31.975Z,9.03
2019-01-19T10:59:37.646Z,8.17
2019-01-19T11:03:43.404Z,9.33
2019-01-19T11:07:49.808Z,10.47
2019-01-19T11:11:55.566Z,11.73
2019-01-19T11:16:01.349Z,11.90
2019-01-19T11:20:11.822Z,11.83
2019-01-19T11:24:17.519Z,10.43
2019-01-19T11:28:23.226Z,8.23
2019-01-19T11:32:28.924Z,13.87
2019-01-19T11:36:34.667Z,9.30
2019-01-19T11:40:40.415Z,9.67
2019-01-19T11:44:46.111Z,10.97
2019-01-19T11:48:51.807Z,9.33
2019-01-19T11:52:57.481Z,9.83
2019-01-19T11:57:03.235Z,11.73
2019-01-19T12:01:08.963Z,9.93
2019-01-19T12:05:14.965Z,10.32
2019-01-19T12:09:21.691Z,10.47
2019-01-19T12:13:27.364Z,10.07
2019-01-19T12:17:33.118Z,10.67
2019-01-19T12:21:38.976Z,9.97
2019-01-19T12:25:44.750Z,12.23
2019-01-19T12:29:50.510Z,13.87
2019-01-19T12:33:56.179Z,10.77
2019-01-19T12:38:02.887Z,11.07
2019-01-19T12:42:08.593Z,10.47
2019-01-19T12:46:14.592Z,12.00
2019-01-19T12:50:24.152Z,12.70
2019-01-19T12:54:29.919Z,11.97
2019-01-19T12:58:35.653Z,13.17
2019-01-19T13:02:41.341Z,12.07
2019-01-19T13:06:47.537Z,12.90
2019-01-19T13:11:12.427Z,14.20
2019-01-19T13:15:28.553Z,12.67
2019-01-19T13:19:44.441Z,13.83
2019-01-19T13:24:18.670Z,12.87
2019-01-19T13:29:10.668Z,14.27
2019-01-19T13:33:29.377Z,11.67
2019-01-19T13:37:45.229Z,12.00
2019-01-19T13:42:25.299Z,14.23
2019-01-19T13:46:47.311Z,11.77
2019-01-19T13:51:06.358Z,12.40
2019-01-19T13:55:34.624Z,11.60
2019-01-19T13:59:53.598Z,12.57
2019-01-19T14:04:20.080Z,11.67
2019-01-19T14:08:49.196Z,11.00
2019-01-19T14:13:08.500Z,12.90
2019-01-19T14:17:43.867Z,11.47
2019-01-19T14:27:16.391Z,11.13
2019-01-19T14:31:47.357Z,13.63
2019-01-19T14:36:24.559Z,14.00
2019-01-19T14:40:54.041Z,13.37
2019-01-19T14:45:48.605Z,12.03
2019-01-19T14:50:16.594Z,11.63
2019-01-19T14:54:29.557Z,12.27
2019-01-19T14:58:51.266Z,10.80
2019-01-19T15:03:22.373Z,10.87
2019-01-19T15:07:41.602Z,11.37
2019-01-19T15:12:06.857Z,11.30
2019-01-19T15:16:48.833Z,10.77
2019-01-19T15:21:10.610Z,11.10
2019-01-19T15:25:35.610Z,11.57
2019-01-19T15:30:00.738Z,12.70
2019-01-19T15:34:28.646Z,11.57
2019-01-19T15:39:17.785Z,12.23
2019-01-19T15:43:47.028Z,12.23
2019-01-19T15:48:34.414Z,11.03
2019-01-19T15:53:00.300Z,11.33
2019-01-19T15:57:28.261Z,12.87
2019-01-19T16:02:20.333Z,12.10
2019-01-19T16:06:39.601Z,11.03
2019-01-19T16:11:04.585Z,10.90
2019-01-19T16:15:44.669Z,10.87
2019-01-19T16:20:09.305Z,12.07
2019-01-19T16:24:41.936Z,11.10
2019-01-19T16:29:12.330Z,11.47
2019-01-19T16:33:43.514Z,11.30
2019-01-19T16:38:31.275Z,13.30
2019-01-19T16:42:58.085Z,13.40
2019-01-19T16:47:35.206Z,13.50
2019-01-19T16:52:22.865Z,13.90
2019-01-19T16:56:58.413Z,14.00
2019-01-19T17:01:29.362Z,14.60
2019-01-19T17:05:45.204Z,13.13
2019-01-19T17:09:57.937Z,13.53
2019-01-19T17:14:19.918Z,13.83
2019-01-19T17:18:32.720Z,15.83
2019-01-19T17:23:00.732Z,14.60
2019-01-19T17:27:22.774Z,15.43
2019-01-19T17:31:35.998Z,14.77
2019-01-19T17:35:54.568Z,17.67
2019-01-19T17:40:52.613Z,15.47
2019-01-19T17:45:15.488Z,13.63
2019-01-19T17:49:40.654Z,14.93
2019-01-19T17:54:23.486Z,19.37
2019-01-19T17:59:04.974Z,16.37
2019-01-19T18:03:20.856Z,14.57
2019-01-19T18:07:40.007Z,16.83
2019-01-19T18:12:07.908Z,14.55
2019-01-19T18:16:37.168Z,16.53
2019-01-19T18:21:02.304Z,17.90
2019-01-19T18:25:36.322Z,18.23
2019-01-19T18:35:44.895Z,16.63
2019-01-19T18:40:49.399Z,17.93
2019-01-19T18:45:02.338Z,18.50
2019-01-19T18:49:46.888Z,17.50
2019-01-19T18:54:02.990Z,17.97
2019-01-19T18:58:18.987Z,18.43
2019-01-19T19:02:43.679Z,17.57
2019-01-19T19:07:29.966Z,16.87
2019-01-19T19:11:56.635Z,19.03
2019-01-19T19:16:25.676Z,20.77
2019-01-19T19:20:47.661Z,16.67
2019-01-19T19:25:09.591Z,19.50
2019-01-19T19:29:28.476Z,18.80
2019-01-19T19:34:04.070Z,19.73
2019-01-19T19:38:20.952Z,19.37
2019-01-19T19:43:05.178Z,19.90
2019-01-19T19:47:53.252Z,18.67
2019-01-19T19:52:02.341Z,20.60
2019-01-19T19:56:06.367Z,16.47
2019-01-19T20:00:12.860Z,18.53
2019-01-19T20:04:18.723Z,21.23
2019-01-19T20:08:24.494Z,20.07
2019-01-19T20:12:31.170Z,20.03
2019-01-19T20:16:37.042Z,18.23
2019-01-19T20:20:42.752Z,19.87
2019-01-19T20:24:48.523Z,20.60
2019-01-19T20:28:54.666Z,18.63
2019-01-19T20:33:00.437Z,17.97
2019-01-19T20:37:06.270Z,18.50
2019-01-19T20:41:11.970Z,18.97
2019-01-19T20:45:18.324Z,17.45
2019-01-19T20:49:24.030Z,17.10
2019-01-19T20:53:29.866Z,17.30
2019-01-19T20:57:35.700Z,17.43
2019-01-19T21:01:41.416Z,17.87
2019-01-19T21:05:47.123Z,19.43
2019-01-19T21:09:52.824Z,18.40
2019-01-19T21:13:58.547Z,17.20
2019-01-19T21:18:04.403Z,20.93
2019-01-19T21:22:11.224Z,18.50
2019-01-19T21:26:18.508Z,16.90
2019-01-19T21:30:24.356Z,19.07
2019-01-19T21:34:30.073Z,17.80
2019-01-19T21:38:35.766Z,18.37
2019-01-19T21:42:50.159Z,18.57
2019-01-19T21:46:55.895Z,19.65
2019-01-19T21:51:02.562Z,20.00
2019-01-19T21:55:10.373Z,19.80
2019-01-19T21:59:16.058Z,18.30
2019-01-19T22:03:21.766Z,22.07
2019-01-19T22:07:27.485Z,18.93
2019-01-19T22:11:33.181Z,18.33
2019-01-19T22:15:38.852Z,20.63
2019-01-19T22:19:44.554Z,18.43
2019-01-19T22:23:50.238Z,18.13
2019-01-19T22:27:56.036Z,19.73
2019-01-19T22:32:01.786Z,20.60
2019-01-19T22:36:07.561Z,19.37
2019-01-19T22:40:17.510Z,22.90
2019-01-19T22:44:23.145Z,18.17
2019-01-19T22:48:28.929Z,21.87
2019-01-19T22:52:49.791Z,21.07
2019-01-19T22:56:56.278Z,22.33
2019-01-19T23:01:07.140Z,20.17
2019-01-19T23:05:12.944Z,20.93
2019-01-19T23:09:18.886Z,22.50
2019-01-19T23:13:51.876Z,18.33
2019-01-19T23:17:57.579Z,21.93
2019-01-19T23:22:48.549Z,21.80
2019-01-19T23:26:55.527Z,19.60
2019-01-19T23:31:01.313Z,21.40
2019-01-19T23:35:08.937Z,20.23
2019-01-19T23:39:50.924Z,17.90
2019-01-19T23:43:56.615Z,17.90
2019-01-19T23:48:02.381Z,22.90
2019-01-19T23:52:08.129Z,19.80
2019-01-19T23:56:13.826Z,22.10
